Time;durP1;ratioP1;P1;durP2;ratioP2;P2;SDS_P1;SDS_P2;PMS_P1;PMS_P2;Temp;Humidity;BMP_temperature;BMP_pressure;BME280_temperature;BME280_humidity;BME280_pressure;Samples;Min_cycle;Max_cycle;Signal;HPM_P1;HPM_P2
2022/11/11 00:00:37;;;;;;;7.87;5.67;;;10.10;1.00;;;;;;6284527;28;20487;-52
2022/11/11 00:03:40;;;;;;;5.47;4.93;;;10.10;1.00;;;;;;6286135;28;20712;-54
2022/11/11 00:06:43;;;;;;;8.03;5.00;;;10.20;1.00;;;;;;6303712;28;20752;-53
2022/11/11 00:09:46;;;;;;;7.13;4.90;;;10.10;1.00;;;;;;6295756;28;20651;-55
2022/11/11 00:12:51;;;;;;;8.67;5.13;;;10.10;1.00;;;;;;6301758;28;20241;-54
2022/11/11 00:15:54;;;;;;;7.37;4.60;;;10.00;1.00;;;;;;6290011;28;20232;-54
2022/11/11 00:25:43;;;;;;;5.23;4.73;;;10.00;1.00;;;;;;6285224;28;20236;-55
2022/11/11 00:28:48;;;;;;;7.90;5.07;;;10.00;1.00;;;;;;6284398;28;20305;-54
2022/11/11 00:38:46;;;;;;;7.13;4.83;;;9.90;1.00;;;;;;6301106;28;20233;-54
2022/11/11 00:41:49;;;;;;;9.13;4.93;;;10.00;1.00;;;;;;6301542;28;20233;-55
2022/11/11 00:44:54;;;;;;;7.57;4.90;;;9.80;1.00;;;;;;6286116;28;20229;-53
2022/11/11 00:51:18;;;;;;;6.60;4.63;;;9.80;1.00;;;;;;6290764;28;20237;-55
2022/11/11 00:54:21;;;;;;;11.50;5.20;;;9.80;1.00;;;;;;6283683;28;20621;-55
2022/11/11 00:57:24;;;;;;;8.70;5.47;;;9.70;1.00;;;;;;6283518;28;20406;-52
2022/11/11 01:00:28;;;;;;;10.00;5.40;;;9.80;1.00;;;;;;6280507;28;20243;-54
2022/11/11 01:03:31;;;;;;;11.80;5.47;;;9.80;1.00;;;;;;6283793;28;20723;-53
2022/11/11 01:06:34;;;;;;;5.90;4.90;;;9.70;1.00;;;;;;6286226;28;20312;-53
2022/11/11 01:09:37;;;;;;;7.83;5.13;;;9.70;1.00;;;;;;6289262;28;20390;-55
2022/11/11 01:12:40;;;;;;;6.90;5.23;;;9.70;1.00;;;;;;6292190;28;20235;-51
2022/11/11 01:15:47;;;;;;;13.60;5.10;;;9.60;1.00;;;;;;6296076;28;20233;-53
2022/11/11 01:18:52;;;;;;;9.40;5.23;;;9.60;1.00;;;;;;6282981;28;20910;-54
2022/11/11 01:21:55;;;;;;;10.37;4.97;;;9.60;1.00;;;;;;6282687;28;20387;-55
2022/11/11 01:24:58;;;;;;;11.30;5.50;;;9.70;1.00;;;;;;6284492;28;20316;-54
2022/11/11 01:28:01;;;;;;;10.90;5.40;;;9.70;1.00;;;;;;6283153;28;20237;-54
2022/11/11 01:31:08;;;;;;;6.20;5.23;;;9.70;1.00;;;;;;6284008;28;20443;-54
2022/11/11 01:34:19;;;;;;;10.20;5.40;;;9.60;1.00;;;;;;6282391;28;20709;-54
2022/11/11 01:37:22;;;;;;;11.43;5.43;;;9.60;1.00;;;;;;6290016;28;20240;-53
2022/11/11 01:40:25;;;;;;;8.60;5.17;;;9.60;1.00;;;;;;6299872;28;20327;-53
2022/11/11 01:43:28;;;;;;;11.60;5.63;;;9.60;1.00;;;;;;6299355;28;20311;-53
2022/11/11 01:46:37;;;;;;;5.57;5.00;;;9.60;1.00;;;;;;6307612;28;20236;-53
2022/11/11 01:49:46;;;;;;;8.70;5.70;;;9.70;1.00;;;;;;6285235;28;20233;-53
2022/11/11 01:52:49;;;;;;;6.07;5.13;;;9.70;1.00;;;;;;6296912;28;20238;-53
2022/11/11 01:55:53;;;;;;;6.43;5.27;;;9.70;1.00;;;;;;6283388;28;20335;-54
2022/11/11 01:59:01;;;;;;;5.50;4.97;;;9.70;1.00;;;;;;6282820;28;20788;-53
2022/11/11 02:02:12;;;;;;;12.10;5.67;;;9.70;1.00;;;;;;6283442;28;20313;-53
2022/11/11 02:08:39;;;;;;;6.33;5.40;;;9.70;1.00;;;;;;6296003;28;20226;-53
2022/11/11 02:15:04;;;;;;;7.97;5.33;;;9.60;1.00;;;;;;6257223;28;20652;-55
2022/11/11 02:18:09;;;;;;;11.77;6.50;;;9.60;1.00;;;;;;6281023;28;20657;-55
2022/11/11 02:21:17;;;;;;;8.00;5.50;;;9.60;1.00;;;;;;6281393;28;20320;-54
2022/11/11 02:24:23;;;;;;;9.00;5.10;;;9.60;1.00;;;;;;6282024;28;20310;-54
2022/11/11 02:27:29;;;;;;;9.37;5.40;;;9.60;1.00;;;;;;6283092;28;20233;-57
2022/11/11 02:30:34;;;;;;;8.93;5.40;;;9.50;1.00;;;;;;6283301;28;20237;-54
2022/11/11 02:33:37;;;;;;;6.30;5.70;;;9.50;1.00;;;;;;6287496;28;20771;-55
2022/11/11 02:36:42;;;;;;;6.83;5.20;;;9.50;1.00;;;;;;6289128;28;20229;-54
2022/11/11 02:39:48;;;;;;;6.67;5.30;;;9.50;1.00;;;;;;6306842;28;20232;-53
2022/11/11 02:43:06;;;;;;;7.70;5.20;;;9.50;1.00;;;;;;6304633;28;20241;-55
2022/11/11 02:46:09;;;;;;;7.63;5.60;;;9.50;1.00;;;;;;6287239;28;20729;-54
2022/11/11 02:49:12;;;;;;;5.70;4.90;;;9.50;1.00;;;;;;6294009;28;20317;-53
2022/11/11 02:52:15;;;;;;;10.10;5.77;;;9.50;1.00;;;;;;6286577;28;20239;-55
2022/11/11 02:55:20;;;;;;;9.33;5.63;;;9.40;1.00;;;;;;6287699;28;20287;-53
2022/11/11 02:58:23;;;;;;;8.77;5.73;;;9.40;1.00;;;;;;6286786;28;20477;-55
2022/11/11 03:01:26;;;;;;;6.27;5.67;;;9.40;1.00;;;;;;6287822;28;20255;-54
2022/11/11 03:04:30;;;;;;;6.33;5.67;;;9.40;1.00;;;;;;6287270;28;20237;-54
2022/11/11 03:07:33;;;;;;;10.87;5.90;;;9.30;1.00;;;;;;6290948;28;20225;-51
2022/11/11 03:10:52;;;;;;;9.27;5.50;;;9.30;1.00;;;;;;6299399;28;20879;-52
2022/11/11 03:13:55;;;;;;;9.03;5.50;;;9.30;1.00;;;;;;6294054;28;20244;-54
2022/11/11 03:23:41;;;;;;;7.83;5.13;;;9.30;1.00;;;;;;6285525;28;20257;-55
2022/11/11 03:26:45;;;;;;;7.47;5.40;;;9.30;1.00;;;;;;6286419;28;20244;-53
2022/11/11 03:29:48;;;;;;;7.27;5.50;;;9.10;1.00;;;;;;6285455;28;20240;-53
2022/11/11 03:32:51;;;;;;;6.20;5.60;;;9.30;1.00;;;;;;6285423;28;20750;-55
2022/11/11 03:35:54;;;;;;;7.17;5.37;;;9.40;1.00;;;;;;6285131;28;20679;-53
2022/11/11 03:38:56;;;;;;;8.63;5.87;;;9.40;1.00;;;;;;6300762;28;20236;-53
2022/11/11 03:42:00;;;;;;;10.67;6.00;;;9.40;1.00;;;;;;6300209;28;20252;-53
2022/11/11 03:45:04;;;;;;;10.53;5.43;;;9.50;1.00;;;;;;6282202;28;20292;-53
2022/11/11 03:48:07;;;;;;;7.10;5.23;;;9.40;1.00;;;;;;6284195;28;20237;-54
2022/11/11 03:51:12;;;;;;;7.53;5.13;;;9.40;1.00;;;;;;6301383;28;20332;-53
2022/11/11 03:54:15;;;;;;;8.03;5.57;;;9.40;1.00;;;;;;6301723;28;20237;-53
2022/11/11 03:57:41;;;;;;;5.60;5.07;;;9.30;1.00;;;;;;6285994;28;20647;-54
2022/11/11 04:00:51;;;;;;;5.30;4.90;;;9.40;1.00;;;;;;6285637;28;20229;-52
2022/11/11 04:10:37;;;;;;;5.77;5.27;;;9.40;1.00;;;;;;6302725;28;21793;-54
2022/11/11 04:17:09;;;;;;;7.07;5.33;;;9.40;1.00;;;;;;6285183;28;20243;-59
2022/11/11 04:23:32;;;;;;;11.73;5.57;;;9.40;1.00;;;;;;6309136;28;20237;-55
2022/11/11 04:26:34;;;;;;;6.20;4.87;;;9.40;1.00;;;;;;6310539;28;20233;-54
2022/11/11 04:29:39;;;;;;;8.50;5.60;;;9.40;1.00;;;;;;6296895;28;20467;-54
2022/11/11 04:32:46;;;;;;;7.27;5.07;;;9.50;1.00;;;;;;6280796;28;20229;-54
2022/11/11 04:35:49;;;;;;;6.53;5.10;;;9.40;1.00;;;;;;6295516;28;20362;-53
2022/11/11 04:42:17;;;;;;;5.93;5.33;;;9.30;1.00;;;;;;6288631;28;20229;-54
2022/11/11 04:45:35;;;;;;;9.60;6.13;;;9.30;1.00;;;;;;6283280;28;20249;-53
2022/11/11 04:48:38;;;;;;;7.27;5.40;;;9.30;1.00;;;;;;6287904;28;20256;-53
2022/11/11 04:58:31;;;;;;;8.17;5.63;;;9.30;1.00;;;;;;6290394;28;20240;-54
2022/11/11 05:05:02;;;;;;;8.13;5.57;;;9.30;1.00;;;;;;6290860;28;20232;-54
2022/11/11 05:11:27;;;;;;;6.17;5.57;;;9.30;1.00;;;;;;6292048;28;20297;-54
2022/11/11 05:21:22;;;;;;;9.93;5.87;;;9.20;1.00;;;;;;6284608;28;20245;-54
2022/11/11 05:27:53;;;;;;;7.33;5.33;;;9.20;1.00;;;;;;6286020;28;20229;-56
2022/11/11 05:30:56;;;;;;;10.37;5.80;;;9.10;1.00;;;;;;6290719;28;20264;-53
2022/11/11 05:34:00;;;;;;;6.53;5.50;;;9.20;1.00;;;;;;6286115;28;20233;-53
2022/11/11 05:37:03;;;;;;;7.80;5.40;;;9.20;1.00;;;;;;6292080;28;20244;-53
2022/11/11 05:40:08;;;;;;;8.07;5.83;;;9.10;1.00;;;;;;6289261;28;20779;-54
2022/11/11 05:43:12;;;;;;;7.37;5.87;;;9.10;1.00;;;;;;6287165;28;20245;-54
2022/11/11 05:46:15;;;;;;;9.30;5.63;;;9.10;1.00;;;;;;6292298;28;20245;-54
2022/11/11 05:49:19;;;;;;;10.77;5.90;;;9.10;1.00;;;;;;6292216;28;20707;-55
2022/11/11 05:52:22;;;;;;;6.57;5.47;;;9.10;1.00;;;;;;6288885;28;20233;-53
2022/11/11 05:55:25;;;;;;;7.87;5.97;;;9.10;1.00;;;;;;6293241;27;20252;-53
2022/11/11 05:58:28;;;;;;;8.33;5.73;;;9.10;1.00;;;;;;6295549;28;20232;-53
2022/11/11 06:01:31;;;;;;;8.30;5.90;;;9.10;1.00;;;;;;6290008;28;20244;-55
2022/11/11 06:04:36;;;;;;;6.03;5.57;;;9.10;1.00;;;;;;6290454;28;20252;-54
2022/11/11 06:07:40;;;;;;;9.90;6.10;;;9.00;1.00;;;;;;6290656;28;20402;-55
2022/11/11 06:10:43;;;;;;;8.87;5.73;;;9.10;1.00;;;;;;6285922;28;20255;-54
2022/11/11 06:13:46;;;;;;;13.53;6.33;;;9.00;1.00;;;;;;6291176;28;20616;-55
2022/11/11 06:16:49;;;;;;;6.40;5.73;;;9.00;1.00;;;;;;6288756;28;20701;-55
2022/11/11 06:19:53;;;;;;;7.80;5.80;;;9.20;1.00;;;;;;6289275;28;20251;-53
2022/11/11 06:23:05;;;;;;;10.87;5.97;;;9.00;1.00;;;;;;6287678;28;20238;-52
2022/11/11 06:26:12;;;;;;;7.00;5.90;;;9.00;1.00;;;;;;6294567;28;20650;-55
2022/11/11 06:29:15;;;;;;;8.03;6.27;;;8.90;1.00;;;;;;6279229;28;20237;-53
2022/11/11 06:32:18;;;;;;;8.40;6.33;;;9.00;1.00;;;;;;6291469;28;20823;-54
2022/11/11 06:35:22;;;;;;;9.00;6.00;;;8.90;1.00;;;;;;6289198;28;20552;-54
2022/11/11 06:38:25;;;;;;;6.57;5.90;;;8.90;1.00;;;;;;6290217;28;20242;-53
2022/11/11 06:41:29;;;;;;;9.17;6.27;;;8.90;1.00;;;;;;6304337;28;20233;-54
2022/11/11 06:44:32;;;;;;;6.43;5.70;;;8.90;1.00;;;;;;6290475;28;20240;-57
2022/11/11 06:47:35;;;;;;;7.37;5.97;;;9.00;1.00;;;;;;6291230;28;20229;-55
2022/11/11 06:50:39;;;;;;;7.00;6.30;;;9.00;1.00;;;;;;6287057;28;20244;-53
2022/11/11 06:53:43;;;;;;;6.97;6.27;;;9.00;1.00;;;;;;6284498;28;20894;-53
2022/11/11 06:56:48;;;;;;;7.97;6.30;;;9.00;1.00;;;;;;6290169;28;20606;-55
2022/11/11 06:59:51;;;;;;;9.43;6.43;;;9.00;1.00;;;;;;6294344;28;20754;-53
2022/11/11 07:02:55;;;;;;;9.97;6.37;;;9.10;1.00;;;;;;6294988;28;20729;-53
2022/11/11 07:06:00;;;;;;;8.20;5.73;;;9.10;1.00;;;;;;6293612;28;20241;-53
2022/11/11 07:09:03;;;;;;;7.97;6.10;;;9.20;1.00;;;;;;6297711;28;20238;-55
2022/11/11 07:12:06;;;;;;;7.37;5.70;;;9.20;1.00;;;;;;6294576;28;20234;-53
2022/11/11 07:15:11;;;;;;;10.37;6.23;;;9.20;1.00;;;;;;6282936;28;20752;-54
2022/11/11 07:18:14;;;;;;;6.13;5.60;;;9.20;1.00;;;;;;6293846;28;20253;-53
2022/11/11 07:21:19;;;;;;;8.10;6.43;;;9.30;1.00;;;;;;6304696;28;20259;-54
2022/11/11 07:24:22;;;;;;;9.07;5.80;;;9.30;1.00;;;;;;6306662;28;20713;-54
2022/11/11 07:27:25;;;;;;;5.47;5.17;;;9.30;1.00;;;;;;6289743;28;20247;-54
2022/11/11 07:30:28;;;;;;;5.80;5.17;;;9.40;1.00;;;;;;6302110;28;20240;-54
2022/11/11 07:33:31;;;;;;;8.30;5.57;;;9.40;1.00;;;;;;6301173;28;20612;-53
2022/11/11 07:36:35;;;;;;;8.47;6.10;;;9.50;1.00;;;;;;6288556;28;20371;-53
2022/11/11 07:39:38;;;;;;;11.23;6.00;;;9.50;1.00;;;;;;6300934;28;20704;-52
2022/11/11 07:42:42;;;;;;;9.70;5.60;;;9.50;1.00;;;;;;6294096;28;20894;-53
2022/11/11 07:45:45;;;;;;;8.13;6.17;;;9.60;1.00;;;;;;6299996;28;20243;-53
2022/11/11 07:48:48;;;;;;;6.50;5.90;;;9.60;1.00;;;;;;6290409;28;20240;-53
2022/11/11 07:51:53;;;;;;;7.90;5.73;;;9.60;1.00;;;;;;6295901;28;20237;-53
2022/11/11 07:54:56;;;;;;;6.73;5.60;;;9.70;1.00;;;;;;6303800;28;20625;-53
2022/11/11 07:57:59;;;;;;;6.37;5.83;;;9.70;1.00;;;;;;6304471;28;20819;-53
2022/11/11 08:01:02;;;;;;;6.50;5.80;;;9.70;1.00;;;;;;6296034;28;20263;-53
2022/11/11 08:04:10;;;;;;;9.97;6.07;;;9.70;1.00;;;;;;6303433;28;20238;-54
2022/11/11 08:07:22;;;;;;;8.10;5.37;;;9.70;1.00;;;;;;6306637;28;20357;-53
2022/11/11 08:10:26;;;;;;;8.57;6.10;;;9.80;1.00;;;;;;6299500;27;20241;-54
2022/11/11 08:13:39;;;;;;;7.93;5.70;;;9.70;1.00;;;;;;6296764;28;20247;-53
2022/11/11 08:16:42;;;;;;;6.00;5.50;;;9.80;1.00;;;;;;6295283;28;20222;-53
2022/11/11 08:19:45;;;;;;;12.47;6.37;;;9.90;1.00;;;;;;6302573;28;20240;-53
2022/11/11 08:22:53;;;;;;;6.27;5.53;;;9.90;1.00;;;;;;6284707;28;20237;-54
2022/11/11 08:26:17;;;;;;;5.73;5.30;;;10.00;1.00;;;;;;6298975;28;20243;-54
2022/11/11 08:29:23;;;;;;;8.43;5.97;;;10.10;1.00;;;;;;6290928;28;20239;-54
2022/11/11 08:32:26;;;;;;;7.83;5.53;;;10.10;1.00;;;;;;6292146;28;20240;-53
2022/11/11 08:35:30;;;;;;;6.80;5.33;;;10.20;1.00;;;;;;6287188;28;20248;-54
2022/11/11 08:38:34;;;;;;;10.67;5.63;;;10.30;1.00;;;;;;6305782;28;20229;-54
2022/11/11 08:41:37;;;;;;;6.90;5.03;;;10.40;1.00;;;;;;6301312;28;20733;-54
2022/11/11 08:44:40;;;;;;;9.33;6.00;;;10.40;1.00;;;;;;6298274;28;20228;-55
2022/11/11 08:47:49;;;;;;;5.83;5.43;;;10.40;1.00;;;;;;6300991;28;20311;-54
2022/11/11 08:50:53;;;;;;;6.10;5.57;;;10.50;1.00;;;;;;6305743;28;20233;-54
2022/11/11 08:54:00;;;;;;;7.80;5.00;;;10.70;1.00;;;;;;6295158;28;20394;-53
2022/11/11 08:57:03;;;;;;;5.23;4.73;;;10.80;1.00;;;;;;6304907;28;20236;-53
2022/11/11 09:00:08;;;;;;;5.50;4.70;;;10.80;1.00;;;;;;6296743;28;20288;-53
2022/11/11 09:03:12;;;;;;;6.30;4.77;;;10.90;1.00;;;;;;6294202;28;20638;-54
2022/11/11 09:06:15;;;;;;;5.77;5.03;;;11.00;1.00;;;;;;6284838;28;20618;-54
2022/11/11 09:09:19;;;;;;;5.03;4.47;;;11.10;1.00;;;;;;6294338;28;20248;-55
2022/11/11 09:12:22;;;;;;;7.03;5.00;;;11.10;1.00;;;;;;6284274;28;20831;-54
2022/11/11 09:15:26;;;;;;;11.20;5.43;;;11.30;1.00;;;;;;6297508;28;20564;-54
2022/11/11 09:18:39;;;;;;;4.57;4.27;;;11.40;1.00;;;;;;6287400;28;20351;-53
2022/11/11 09:21:42;;;;;;;5.43;5.03;;;11.50;1.00;;;;;;6295456;28;20236;-53
2022/11/11 09:24:47;;;;;;;5.43;4.83;;;11.60;1.00;;;;;;6284645;28;20621;-54
2022/11/11 09:27:57;;;;;;;5.00;4.53;;;11.80;1.00;;;;;;6285063;28;20236;-53
2022/11/11 09:31:00;;;;;;;6.27;4.63;;;11.80;1.00;;;;;;6303356;28;20229;-54
2022/11/11 09:34:23;;;;;;;5.30;4.80;;;11.80;1.00;;;;;;6299666;28;20728;-53
2022/11/11 09:37:26;;;;;;;9.47;5.10;;;11.90;1.00;;;;;;6294602;28;20768;-55
2022/11/11 09:40:46;;;;;;;5.33;4.67;;;11.80;1.00;;;;;;6301073;28;20232;-54
2022/11/11 09:43:57;;;;;;;5.30;4.87;;;11.80;1.00;;;;;;6288680;28;20244;-54
2022/11/11 09:47:05;;;;;;;5.23;4.73;;;11.90;1.00;;;;;;6294077;28;20614;-53
2022/11/11 09:50:11;;;;;;;8.13;5.33;;;11.90;1.00;;;;;;6303742;28;20520;-53
2022/11/11 09:53:22;;;;;;;7.07;4.20;;;11.90;1.00;;;;;;6287312;28;20241;-54
2022/11/11 09:56:31;;;;;;;7.80;4.57;;;12.00;1.00;;;;;;6286103;28;20341;-53
2022/11/11 09:59:44;;;;;;;5.13;4.57;;;12.00;1.00;;;;;;6294239;28;20241;-54
2022/11/11 10:02:51;;;;;;;9.27;5.30;;;12.10;1.00;;;;;;6290492;28;20245;-53
2022/11/11 10:06:02;;;;;;;5.37;4.90;;;12.20;1.00;;;;;;6298827;28;20252;-54
2022/11/11 10:09:13;;;;;;;5.03;4.63;;;12.20;1.00;;;;;;6295747;28;20229;-54
2022/11/11 10:12:35;;;;;;;8.73;7.53;;;12.20;1.00;;;;;;6292042;28;20244;-54
2022/11/11 10:16:01;;;;;;;8.57;5.47;;;12.20;1.00;;;;;;6303055;28;20220;-54
2022/11/11 10:19:24;;;;;;;5.30;4.77;;;12.20;1.00;;;;;;6289222;28;20243;-54
2022/11/11 10:22:33;;;;;;;6.83;6.13;;;12.30;1.00;;;;;;6295021;28;20733;-54
2022/11/11 10:25:38;;;;;;;8.20;4.83;;;12.30;1.00;;;;;;6288168;28;20627;-54
2022/11/11 10:28:44;;;;;;;8.03;5.10;;;12.30;1.00;;;;;;6283599;28;20243;-55
2022/11/11 10:31:55;;;;;;;4.90;4.50;;;12.30;1.00;;;;;;6292323;28;20229;-53
2022/11/11 10:35:16;;;;;;;5.60;4.87;;;12.30;1.00;;;;;;6294987;28;20232;-54
2022/11/11 10:38:34;;;;;;;7.30;4.10;;;12.40;1.00;;;;;;6294684;28;20489;-53
2022/11/11 10:41:40;;;;;;;8.47;4.60;;;12.40;1.00;;;;;;6286954;28;20601;-55
2022/11/11 10:44:45;;;;;;;4.63;3.80;;;12.50;1.00;;;;;;6285132;28;20610;-53
2022/11/11 10:47:56;;;;;;;4.77;4.30;;;12.60;1.00;;;;;;6284244;28;20615;-54
2022/11/11 10:51:02;;;;;;;5.30;4.57;;;12.60;1.00;;;;;;6292111;28;20233;-55
2022/11/11 10:54:13;;;;;;;4.90;4.50;;;12.70;1.00;;;;;;6296002;28;20240;-53
2022/11/11 10:57:21;;;;;;;4.90;4.47;;;12.70;1.00;;;;;;6300666;28;20237;-52
2022/11/11 11:00:26;;;;;;;4.27;3.87;;;12.80;1.00;;;;;;6297257;28;20722;-55
2022/11/11 11:03:33;;;;;;;6.83;4.50;;;12.90;1.00;;;;;;6299602;28;20760;-54
2022/11/11 11:06:40;;;;;;;10.00;4.83;;;12.90;1.00;;;;;;6300139;28;20609;-53
2022/11/11 11:09:55;;;;;;;7.57;4.80;;;13.00;1.00;;;;;;6297288;28;20228;-53
2022/11/11 11:13:06;;;;;;;6.13;4.37;;;13.00;1.00;;;;;;6305766;28;20244;-58
2022/11/11 11:16:19;;;;;;;5.70;4.80;;;13.10;1.00;;;;;;6296317;28;20371;-53
2022/11/11 11:19:25;;;;;;;4.30;3.90;;;13.10;1.00;;;;;;6288995;28;20432;-54
2022/11/11 11:22:46;;;;;;;6.10;4.97;;;13.20;1.00;;;;;;6292028;28;20237;-53
2022/11/11 11:25:54;;;;;;;4.90;4.50;;;13.20;1.00;;;;;;6298287;28;20241;-54
2022/11/11 11:29:00;;;;;;;5.53;4.10;;;13.10;1.00;;;;;;6292602;28;20515;-55
2022/11/11 11:32:16;;;;;;;4.80;3.60;;;13.00;1.00;;;;;;6287568;28;20226;-53
2022/11/11 11:35:37;;;;;;;5.63;4.07;;;13.10;1.00;;;;;;6282882;28;20724;-55
2022/11/11 11:38:42;;;;;;;5.83;4.30;;;13.10;1.00;;;;;;6294029;28;20233;-55
2022/11/11 11:41:49;;;;;;;4.77;4.40;;;13.10;1.00;;;;;;6291269;28;20252;-55
2022/11/11 11:44:52;;;;;;;6.40;4.20;;;13.20;1.00;;;;;;6298279;28;20226;-53
2022/11/11 11:48:11;;;;;;;6.23;4.43;;;13.10;1.00;;;;;;6303866;28;20243;-53
2022/11/11 11:51:40;;;;;;;5.20;4.20;;;13.10;1.00;;;;;;6289328;28;20412;-57
2022/11/11 11:54:55;;;;;;;4.73;4.37;;;13.10;1.00;;;;;;6302506;28;20244;-53
2022/11/11 11:58:12;;;;;;;4.37;4.03;;;13.10;1.00;;;;;;6302108;28;20226;-53
2022/11/11 12:01:21;;;;;;;5.73;4.20;;;13.10;1.00;;;;;;6285231;28;20238;-52
2022/11/11 12:05:08;;;;;;;5.07;4.37;;;13.10;1.00;;;;;;6284664;28;20241;-53
2022/11/11 12:08:29;;;;;;;4.20;3.90;;;13.20;1.00;;;;;;6286498;28;20250;-53
2022/11/11 12:11:40;;;;;;;4.30;3.97;;;13.30;1.00;;;;;;6298176;28;20235;-54
2022/11/11 12:14:56;;;;;;;5.63;4.27;;;13.30;1.00;;;;;;6285649;28;20233;-53
2022/11/11 12:18:31;;;;;;;7.57;4.00;;;13.40;1.00;;;;;;6299191;28;20260;-53
2022/11/11 12:21:42;;;;;;;4.77;4.37;;;13.40;1.00;;;;;;6271228;28;20228;-53
2022/11/11 12:24:53;;;;;;;5.67;3.90;;;13.40;1.00;;;;;;6301029;28;20233;-58
2022/11/11 12:28:02;;;;;;;4.43;3.73;;;13.50;1.00;;;;;;6290354;27;20619;-55
2022/11/11 12:31:25;;;;;;;4.87;3.67;;;13.40;1.00;;;;;;6297769;28;20257;-57
2022/11/11 12:35:06;;;;;;;3.43;3.23;;;13.50;1.00;;;;;;6290036;28;20249;-53
2022/11/11 12:38:38;;;;;;;4.80;4.30;;;13.50;1.00;;;;;;6292105;28;20491;-56
2022/11/11 12:41:52;;;;;;;3.87;3.57;;;13.60;1.00;;;;;;6289364;28;20236;-54
2022/11/11 12:45:05;;;;;;;4.73;3.83;;;13.60;1.00;;;;;;6289822;28;20245;-54
2022/11/11 12:48:27;;;;;;;3.63;3.43;;;13.70;1.00;;;;;;6301230;28;20857;-55
2022/11/11 12:51:40;;;;;;;4.10;3.57;;;13.70;1.00;;;;;;6292914;28;20237;-54
2022/11/11 12:54:56;;;;;;;4.47;3.57;;;13.70;1.00;;;;;;6302177;28;20237;-53
2022/11/11 12:58:10;;;;;;;8.90;4.00;;;13.70;1.00;;;;;;6299304;28;20248;-53
2022/11/11 13:01:24;;;;;;;5.20;4.70;;;13.70;1.00;;;;;;6296102;28;20237;-55
2022/11/11 13:05:05;;;;;;;3.70;3.40;;;13.80;1.00;;;;;;6290635;28;20319;-55
2022/11/11 13:08:48;;;;;;;4.80;3.77;;;13.80;1.00;;;;;;6293202;28;20257;-53
2022/11/11 13:12:02;;;;;;;4.23;3.93;;;13.80;1.00;;;;;;6287796;28;20229;-59
2022/11/11 13:15:14;;;;;;;4.97;4.23;;;13.70;1.00;;;;;;6299224;28;20242;-56
2022/11/11 13:18:22;;;;;;;3.70;3.50;;;13.70;1.00;;;;;;6295693;28;20762;-53
2022/11/11 13:21:34;;;;;;;7.70;3.87;;;13.80;1.00;;;;;;6300078;28;20240;-53
2022/11/11 13:24:37;;;;;;;4.40;4.00;;;13.80;1.00;;;;;;6288394;28;20240;-53
2022/11/11 13:27:48;;;;;;;4.50;4.10;;;13.70;1.00;;;;;;6296614;28;20735;-54
2022/11/11 13:31:14;;;;;;;4.93;3.90;;;13.60;1.00;;;;;;6300719;28;20236;-53
2022/11/11 13:34:18;;;;;;;3.87;3.70;;;13.60;1.00;;;;;;6287488;28;20248;-54
2022/11/11 13:37:27;;;;;;;3.80;3.60;;;13.60;1.00;;;;;;6296807;28;20229;-53
2022/11/11 13:40:41;;;;;;;8.10;3.87;;;13.60;1.00;;;;;;6298250;28;20237;-53
2022/11/11 13:43:49;;;;;;;4.17;3.87;;;13.60;1.00;;;;;;6292887;28;20451;-54
2022/11/11 13:46:58;;;;;;;4.53;3.90;;;13.60;1.00;;;;;;6289760;28;20245;-54
2022/11/11 13:50:06;;;;;;;3.70;3.33;;;13.50;1.00;;;;;;6290003;28;20351;-53
2022/11/11 13:53:16;;;;;;;3.97;3.67;;;13.40;1.00;;;;;;6298042;28;20646;-53
2022/11/11 13:56:25;;;;;;;3.80;3.20;;;13.40;1.00;;;;;;6292104;28;20233;-53
2022/11/11 13:59:32;;;;;;;6.20;3.90;;;13.40;1.00;;;;;;6297882;28;20610;-53
2022/11/11 14:02:36;;;;;;;6.57;4.17;;;13.40;1.00;;;;;;6297604;28;20245;-55
2022/11/11 14:05:39;;;;;;;4.17;3.60;;;13.30;1.00;;;;;;6294503;28;20237;-54
2022/11/11 14:08:53;;;;;;;4.60;4.20;;;13.30;1.00;;;;;;6291972;28;20252;-55
2022/11/11 14:12:20;;;;;;;4.50;4.07;;;13.30;1.00;;;;;;6297502;28;20225;-53
2022/11/11 14:15:46;;;;;;;4.63;4.10;;;13.30;1.00;;;;;;6287294;28;20245;-54
2022/11/11 14:18:50;;;;;;;4.20;3.87;;;13.30;1.00;;;;;;6291592;28;20225;-53
2022/11/11 14:22:00;;;;;;;4.10;3.80;;;13.20;1.00;;;;;;6284894;28;20245;-54
2022/11/11 14:25:27;;;;;;;3.80;3.50;;;13.20;1.00;;;;;;6291576;28;20232;-54
2022/11/11 14:28:31;;;;;;;5.80;4.10;;;13.10;1.00;;;;;;6298208;28;20251;-54
2022/11/11 14:32:06;;;;;;;3.80;3.50;;;13.00;1.00;;;;;;6298198;28;20237;-54
2022/11/11 14:35:33;;;;;;;4.37;4.07;;;13.00;1.00;;;;;;6281014;28;20424;-53
2022/11/11 14:38:51;;;;;;;5.73;4.17;;;13.00;1.00;;;;;;6296639;28;20752;-53
2022/11/11 14:41:55;;;;;;;4.43;4.10;;;12.90;1.00;;;;;;6303588;28;20247;-56
2022/11/11 14:44:58;;;;;;;6.50;4.37;;;12.80;1.00;;;;;;6292266;28;20224;-54
2022/11/11 14:48:01;;;;;;;4.43;4.10;;;12.80;1.00;;;;;;6292385;28;20236;-55
2022/11/11 14:51:44;;;;;;;4.10;3.90;;;12.70;1.00;;;;;;6293443;28;20233;-53
2022/11/11 14:55:12;;;;;;;4.20;3.90;;;12.70;1.00;;;;;;6283213;28;20721;-55
2022/11/11 14:58:16;;;;;;;3.90;3.67;;;12.70;1.00;;;;;;6287881;28;20712;-55
2022/11/11 15:01:21;;;;;;;3.63;3.43;;;12.60;1.00;;;;;;6294547;28;20243;-55
2022/11/11 15:04:25;;;;;;;4.10;3.73;;;12.50;1.00;;;;;;6295038;28;20242;-54
2022/11/11 15:07:44;;;;;;;4.43;4.13;;;12.50;1.00;;;;;;6288734;28;20248;-54
2022/11/11 15:11:13;;;;;;;5.07;4.40;;;12.40;1.00;;;;;;6297307;28;20534;-54
2022/11/11 15:14:28;;;;;;;4.93;4.53;;;12.40;1.00;;;;;;6302314;28;20236;-54
2022/11/11 15:17:41;;;;;;;4.83;4.40;;;12.30;1.00;;;;;;6298062;28;20240;-55
2022/11/11 15:21:02;;;;;;;4.63;4.30;;;12.30;1.00;;;;;;6298287;28;20225;-55
2022/11/11 15:24:17;;;;;;;4.77;4.37;;;12.20;1.00;;;;;;6297707;28;20251;-53
2022/11/11 15:27:30;;;;;;;5.50;5.10;;;12.20;1.00;;;;;;6293104;28;20244;-54
2022/11/11 15:30:49;;;;;;;5.20;4.33;;;12.10;1.00;;;;;;6289167;28;20236;-55
2022/11/11 15:34:02;;;;;;;7.20;4.17;;;12.00;1.00;;;;;;6295147;28;20236;-53
2022/11/11 15:37:09;;;;;;;4.57;4.03;;;12.00;1.00;;;;;;6296887;28;20234;-55
2022/11/11 15:40:19;;;;;;;5.17;4.07;;;11.90;1.00;;;;;;6288550;28;20236;-55
2022/11/11 15:43:26;;;;;;;5.00;4.60;;;11.80;1.00;;;;;;6300780;28;20245;-54
2022/11/11 15:46:35;;;;;;;4.50;4.20;;;11.80;1.00;;;;;;6291381;28;20646;-53
2022/11/11 15:49:43;;;;;;;4.87;4.57;;;11.70;1.00;;;;;;6301373;28;20241;-54
2022/11/11 15:52:46;;;;;;;6.90;4.40;;;11.60;1.00;;;;;;6287962;28;20628;-54
2022/11/11 15:55:55;;;;;;;5.13;4.73;;;11.60;1.00;;;;;;6307058;28;20308;-55
2022/11/11 15:58:58;;;;;;;6.10;4.60;;;11.60;1.00;;;;;;6301145;28;20571;-56
2022/11/11 16:02:06;;;;;;;6.07;4.67;;;11.60;1.00;;;;;;6300857;28;20252;-54
2022/11/11 16:05:19;;;;;;;5.37;4.87;;;11.50;1.00;;;;;;6297309;28;20630;-55
2022/11/11 16:08:22;;;;;;;5.77;4.80;;;11.50;1.00;;;;;;6295557;28;20637;-54
2022/11/11 16:11:27;;;;;;;5.30;4.80;;;11.50;1.00;;;;;;6296350;28;20240;-53
2022/11/11 16:14:35;;;;;;;8.70;5.47;;;11.40;1.00;;;;;;6294115;28;20394;-53
2022/11/11 16:17:41;;;;;;;5.67;5.17;;;11.40;1.00;;;;;;6298073;28;20324;-55
2022/11/11 16:20:49;;;;;;;5.53;5.03;;;11.40;1.00;;;;;;6286089;28;20257;-54
2022/11/11 16:23:55;;;;;;;5.73;5.27;;;11.30;1.00;;;;;;6300036;28;20757;-54
2022/11/11 16:27:02;;;;;;;5.97;5.37;;;11.20;1.00;;;;;;6298110;28;20343;-55
2022/11/11 16:30:28;;;;;;;6.30;5.57;;;11.20;1.00;;;;;;6291897;28;20228;-53
2022/11/11 16:33:37;;;;;;;6.93;5.77;;;11.10;1.00;;;;;;6302071;28;20245;-54
2022/11/11 16:36:59;;;;;;;6.57;5.97;;;11.10;1.00;;;;;;6298091;28;20229;-55
2022/11/11 16:40:35;;;;;;;7.20;6.00;;;11.10;1.00;;;;;;6293070;28;20555;-55
2022/11/11 16:43:43;;;;;;;6.73;6.03;;;11.10;1.00;;;;;;6300644;28;20485;-55
2022/11/11 16:46:46;;;;;;;5.50;5.10;;;11.00;1.00;;;;;;6298337;28;20221;-55
2022/11/11 16:50:02;;;;;;;5.00;4.70;;;11.00;1.00;;;;;;6294139;28;20260;-54
2022/11/11 16:53:06;;;;;;;5.70;5.30;;;11.00;1.00;;;;;;6289511;28;21223;-55
2022/11/11 16:56:18;;;;;;;5.60;5.17;;;11.00;1.00;;;;;;6296080;28;20234;-55
2022/11/11 16:59:34;;;;;;;6.10;5.60;;;10.90;1.00;;;;;;6295670;28;20410;-55
2022/11/11 17:02:37;;;;;;;5.27;4.87;;;10.80;1.00;;;;;;6298597;28;20736;-54
2022/11/11 17:05:49;;;;;;;5.73;5.23;;;10.80;1.00;;;;;;6297045;28;20244;-53
2022/11/11 17:08:52;;;;;;;6.53;6.13;;;10.80;1.00;;;;;;6290341;28;20248;-55
2022/11/11 17:11:56;;;;;;;6.60;6.03;;;10.70;1.00;;;;;;6293464;28;20239;-56
2022/11/11 17:15:01;;;;;;;7.03;6.33;;;10.70;1.00;;;;;;6301931;28;20592;-54
2022/11/11 17:18:04;;;;;;;6.10;5.70;;;10.60;1.00;;;;;;6295265;28;20229;-54
2022/11/11 17:21:07;;;;;;;6.80;6.23;;;10.60;1.00;;;;;;6303545;28;20362;-53
2022/11/11 17:24:16;;;;;;;7.50;6.77;;;10.60;1.00;;;;;;6296269;28;20339;-54
2022/11/11 17:27:19;;;;;;;7.20;6.57;;;10.50;1.00;;;;;;6296060;28;20237;-54
2022/11/11 17:30:24;;;;;;;7.57;6.87;;;10.50;1.00;;;;;;6288178;28;20241;-55
2022/11/11 17:33:27;;;;;;;10.57;7.40;;;10.50;1.00;;;;;;6306802;28;20244;-55
2022/11/11 17:36:31;;;;;;;10.27;6.90;;;10.40;1.00;;;;;;6294673;28;20241;-55
2022/11/11 17:39:37;;;;;;;6.73;6.23;;;10.40;1.00;;;;;;6292678;28;20624;-55
2022/11/11 17:42:40;;;;;;;7.93;6.17;;;10.40;1.00;;;;;;6296307;28;20646;-55
2022/11/11 17:45:45;;;;;;;7.57;6.67;;;10.40;1.00;;;;;;6295280;28;20241;-56
2022/11/11 17:48:48;;;;;;;7.80;6.30;;;10.30;1.00;;;;;;6290835;28;20237;-53